sensor_id;sensor_type;location;lat;lon;timestamp;pressure;altitude;pressure_sealevel;temperature;humidity
51439;BME280;38816;51.142;-0.974;2023-12-29T00:01:20;99224.91;;;7.06;100.00
51439;BME280;38816;51.142;-0.974;2023-12-29T00:03:46;99221.53;;;7.10;100.00
51439;BME280;38816;51.142;-0.974;2023-12-29T00:06:11;99215.59;;;7.11;100.00
51439;BME280;38816;51.142;-0.974;2023-12-29T00:08:37;99206.22;;;7.10;100.00
51439;BME280;38816;51.142;-0.974;2023-12-29T00:11:02;99208.75;;;7.07;100.00
51439;BME280;38816;51.142;-0.974;2023-12-29T00:13:28;99209.44;;;6.97;100.00
51439;BME280;38816;51.142;-0.974;2023-12-29T00:15:55;99211.00;;;6.89;100.00
51439;BME280;38816;51.142;-0.974;2023-12-29T00:18:21;99205.97;;;6.92;100.00
51439;BME280;38816;51.142;-0.974;2023-12-29T00:20:47;99202.69;;;7.02;100.00
51439;BME280;38816;51.142;-0.974;2023-12-29T00:23:13;99224.91;;;7.06;100.00
51439;BME280;38816;51.142;-0.974;2023-12-29T00:25:38;99210.41;;;7.05;100.00
51439;BME280;38816;51.142;-0.974;2023-12-29T00:28:05;99219.75;;;7.03;100.00
51439;BME280;38816;51.142;-0.974;2023-12-29T00:30:31;99226.59;;;7.04;100.00
51439;BME280;38816;51.142;-0.974;2023-12-29T00:32:56;99218.84;;;6.99;100.00
51439;BME280;38816;51.142;-0.974;2023-12-29T00:35:22;99224.88;;;7.04;100.00
51439;BME280;38816;51.142;-0.974;2023-12-29T00:37:49;99223.19;;;7.05;100.00
51439;BME280;38816;51.142;-0.974;2023-12-29T00:40:15;99218.97;;;7.08;100.00
51439;BME280;38816;51.142;-0.974;2023-12-29T00:42:40;99225.09;;;7.20;100.00
51439;BME280;38816;51.142;-0.974;2023-12-29T00:45:06;99226.00;;;7.23;100.00
51439;BME280;38816;51.142;-0.974;2023-12-29T00:47:32;99222.53;;;7.20;100.00
51439;BME280;38816;51.142;-0.974;2023-12-29T00:49:57;99228.53;;;7.23;100.00
51439;BME280;38816;51.142;-0.974;2023-12-29T00:52:23;99225.06;;;7.17;100.00
51439;BME280;38816;51.142;-0.974;2023-12-29T00:54:48;99235.25;;;7.15;100.00
51439;BME280;38816;51.142;-0.974;2023-12-29T00:57:14;99227.75;;;7.26;100.00
51439;BME280;38816;51.142;-0.974;2023-12-29T00:59:40;99234.63;;;7.33;100.00
51439;BME280;38816;51.142;-0.974;2023-12-29T01:02:06;99221.97;;;7.41;100.00
51439;BME280;38816;51.142;-0.974;2023-12-29T01:04:32;99222.06;;;7.48;100.00
51439;BME280;38816;51.142;-0.974;2023-12-29T01:06:58;99222.09;;;7.51;100.00
51439;BME280;38816;51.142;-0.974;2023-12-29T01:09:23;99220.38;;;7.49;100.00
51439;BME280;38816;51.142;-0.974;2023-12-29T01:11:48;99214.38;;;7.48;100.00
51439;BME280;38816;51.142;-0.974;2023-12-29T01:14:14;99226.44;;;7.57;100.00
51439;BME280;38816;51.142;-0.974;2023-12-29T01:16:40;99201.72;;;7.57;100.00
51439;BME280;38816;51.142;-0.974;2023-12-29T01:19:06;99208.59;;;7.63;100.00
51439;BME280;38816;51.142;-0.974;2023-12-29T01:21:32;99214.56;;;7.62;100.00
51439;BME280;38816;51.142;-0.974;2023-12-29T01:24:00;99205.13;;;7.59;100.00
51439;BME280;38816;51.142;-0.974;2023-12-29T01:26:26;99201.72;;;7.57;100.00
51439;BME280;38816;51.142;-0.974;2023-12-29T01:28:52;99204.31;;;7.62;100.00
51439;BME280;38816;51.142;-0.974;2023-12-29T01:31:17;99196.72;;;7.68;100.00
51439;BME280;38816;51.142;-0.974;2023-12-29T01:33:43;99197.66;;;7.75;100.00
51439;BME280;38816;51.142;-0.974;2023-12-29T01:36:08;99189.19;;;7.82;100.00
51439;BME280;38816;51.142;-0.974;2023-12-29T01:38:34;99180.59;;;7.78;100.00
51439;BME280;38816;51.142;-0.974;2023-12-29T01:41:00;99190.84;;;7.78;100.00
51439;BME280;38816;51.142;-0.974;2023-12-29T01:43:25;99189.97;;;7.76;100.00
51439;BME280;38816;51.142;-0.974;2023-12-29T01:45:51;99189.94;;;7.73;100.00
51439;BME280;38816;51.142;-0.974;2023-12-29T01:48:16;99188.22;;;7.72;100.00
51439;BME280;38816;51.142;-0.974;2023-12-29T01:50:43;99188.19;;;7.68;100.00
51439;BME280;38816;51.142;-0.974;2023-12-29T01:53:10;99177.09;;;7.67;100.00
51439;BME280;38816;51.142;-0.974;2023-12-29T01:55:37;99171.94;;;7.64;100.00
51439;BME280;38816;51.142;-0.974;2023-12-29T01:58:03;99166.88;;;7.69;100.00
51439;BME280;38816;51.142;-0.974;2023-12-29T02:00:28;99156.63;;;7.67;100.00
51439;BME280;38816;51.142;-0.974;2023-12-29T02:02:54;99150.72;;;7.71;100.00
51439;BME280;38816;51.142;-0.974;2023-12-29T02:05:22;99149.00;;;7.73;100.00
51439;BME280;38816;51.142;-0.974;2023-12-29T02:07:51;99138.78;;;7.70;100.00
51439;BME280;38816;51.142;-0.974;2023-12-29T02:10:17;99151.50;;;7.66;100.00
51439;BME280;38816;51.142;-0.974;2023-12-29T02:12:45;99153.19;;;7.65;100.00
51439;BME280;38816;51.142;-0.974;2023-12-29T02:15:11;99148.97;;;7.69;100.00
51439;BME280;38816;51.142;-0.974;2023-12-29T02:17:55;99152.41;;;7.72;100.00
51439;BME280;38816;51.142;-0.974;2023-12-29T02:20:22;99153.22;;;7.68;100.00
51439;BME280;38816;51.142;-0.974;2023-12-29T02:22:48;99161.81;;;7.73;100.00
51439;BME280;38816;51.142;-0.974;2023-12-29T02:25:14;99164.41;;;7.76;100.00
51439;BME280;38816;51.142;-0.974;2023-12-29T02:27:57;99157.59;;;7.78;100.00
51439;BME280;38816;51.142;-0.974;2023-12-29T02:30:43;99155.03;;;7.78;100.00
51439;BME280;38816;51.142;-0.974;2023-12-29T02:33:21;99155.84;;;7.74;100.00
51439;BME280;38816;51.142;-0.974;2023-12-29T02:35:49;99160.09;;;7.72;100.00
51439;BME280;38816;51.142;-0.974;2023-12-29T02:38:16;99141.38;;;7.78;100.00
51439;BME280;38816;51.142;-0.974;2023-12-29T02:40:42;99144.75;;;7.74;100.00
51439;BME280;38816;51.142;-0.974;2023-12-29T02:43:11;99152.47;;;7.75;100.00
51439;BME280;38816;51.142;-0.974;2023-12-29T02:45:37;99150.75;;;7.77;100.00
51439;BME280;38816;51.142;-0.974;2023-12-29T02:48:02;99157.56;;;7.75;100.00
51439;BME280;38816;51.142;-0.974;2023-12-29T02:50:28;99149.94;;;7.81;100.00
51439;BME280;38816;51.142;-0.974;2023-12-29T02:52:53;99147.44;;;7.86;100.00
51439;BME280;38816;51.142;-0.974;2023-12-29T02:55:19;99147.53;;;7.94;100.00
51439;BME280;38816;51.142;-0.974;2023-12-29T02:57:44;99152.66;;;7.97;100.00
51439;BME280;38816;51.142;-0.974;2023-12-29T03:00:10;99146.72;;;7.99;100.00
51439;BME280;38816;51.142;-0.974;2023-12-29T03:02:36;99157.03;;;8.10;100.00
51439;BME280;38816;51.142;-0.974;2023-12-29T03:05:02;99146.88;;;8.18;100.00
51439;BME280;38816;51.142;-0.974;2023-12-29T03:07:27;99149.47;;;8.22;100.00
51439;BME280;38816;51.142;-0.974;2023-12-29T03:09:53;99151.16;;;8.23;100.00
51439;BME280;38816;51.142;-0.974;2023-12-29T03:12:18;99153.06;;;8.41;100.00
51439;BME280;38816;51.142;-0.974;2023-12-29T03:14:44;99149.66;;;8.44;100.00
51439;BME280;38816;51.142;-0.974;2023-12-29T03:17:11;99154.75;;;8.38;100.00
51439;BME280;38816;51.142;-0.974;2023-12-29T03:19:37;99156.47;;;8.42;100.00
51439;BME280;38816;51.142;-0.974;2023-12-29T03:22:02;99142.00;;;8.44;100.00
51439;BME280;38816;51.142;-0.974;2023-12-29T03:24:29;99141.19;;;8.54;100.00
51439;BME280;38816;51.142;-0.974;2023-12-29T03:26:54;99140.41;;;8.64;100.00
51439;BME280;38816;51.142;-0.974;2023-12-29T03:29:20;99136.97;;;8.59;100.00
51439;BME280;38816;51.142;-0.974;2023-12-29T03:31:45;99127.59;;;8.64;100.00
51439;BME280;38816;51.142;-0.974;2023-12-29T03:34:11;99126.78;;;8.67;100.00
51439;BME280;38816;51.142;-0.974;2023-12-29T03:36:36;99126.72;;;8.59;100.00
51439;BME280;38816;51.142;-0.974;2023-12-29T03:39:02;99123.31;;;8.57;100.00
51439;BME280;38816;51.142;-0.974;2023-12-29T03:41:28;99111.31;;;8.54;100.00
51439;BME280;38816;51.142;-0.974;2023-12-29T03:43:53;99117.25;;;8.50;100.00
51439;BME280;38816;51.142;-0.974;2023-12-29T03:46:20;99108.72;;;8.47;100.00
51439;BME280;38816;51.142;-0.974;2023-12-29T03:48:46;99100.16;;;8.45;100.00
51439;BME280;38816;51.142;-0.974;2023-12-29T03:51:12;99091.63;;;8.46;100.00
51439;BME280;38816;51.142;-0.974;2023-12-29T03:53:37;99096.81;;;8.53;100.00
51439;BME280;38816;51.142;-0.974;2023-12-29T03:56:13;99091.69;;;8.55;100.00
51439;BME280;38816;51.142;-0.974;2023-12-29T03:58:38;99093.44;;;8.62;100.00
51439;BME280;38816;51.142;-0.974;2023-12-29T04:01:09;99105.41;;;8.66;100.00
51439;BME280;38816;51.142;-0.974;2023-12-29T04:03:35;99115.66;;;8.68;100.00
51439;BME280;38816;51.142;-0.974;2023-12-29T04:06:01;99114.00;;;8.71;100.00
51439;BME280;38816;51.142;-0.974;2023-12-29T04:08:27;99112.34;;;8.85;100.00
51439;BME280;38816;51.142;-0.974;2023-12-29T04:10:52;99100.41;;;8.87;100.00
51439;BME280;38816;51.142;-0.974;2023-12-29T04:13:18;99091.84;;;8.85;100.00
51439;BME280;38816;51.142;-0.974;2023-12-29T04:15:43;99096.16;;;8.88;100.00
51439;BME280;38816;51.142;-0.974;2023-12-29T04:18:09;99089.31;;;8.88;100.00
51439;BME280;38816;51.142;-0.974;2023-12-29T04:20:34;99081.66;;;8.93;100.00
51439;BME280;38816;51.142;-0.974;2023-12-29T04:23:00;99079.97;;;9.01;100.00
51439;BME280;38816;51.142;-0.974;2023-12-29T04:25:25;99086.75;;;8.95;100.00
51439;BME280;38816;51.142;-0.974;2023-12-29T04:27:50;99081.63;;;8.88;100.00
51439;BME280;38816;51.142;-0.974;2023-12-29T04:30:16;99085.03;;;8.91;100.00
51439;BME280;38816;51.142;-0.974;2023-12-29T04:32:42;99083.31;;;8.86;100.00
51439;BME280;38816;51.142;-0.974;2023-12-29T04:35:08;99084.13;;;8.82;100.00
51439;BME280;38816;51.142;-0.974;2023-12-29T04:37:37;99092.72;;;8.83;100.00
51439;BME280;38816;51.142;-0.974;2023-12-29T04:40:03;99086.75;;;8.90;100.00
51439;BME280;38816;51.142;-0.974;2023-12-29T04:42:28;99083.38;;;8.99;100.00
51439;BME280;38816;51.142;-0.974;2023-12-29T04:44:54;99081.66;;;8.98;100.00
51439;BME280;38816;51.142;-0.974;2023-12-29T04:47:19;99085.94;;;8.99;100.00
51439;BME280;38816;51.142;-0.974;2023-12-29T04:49:44;99077.38;;;8.98;100.00
51439;BME280;38816;51.142;-0.974;2023-12-29T04:52:10;99085.06;;;9.00;100.00
51439;BME280;38816;51.142;-0.974;2023-12-29T04:54:35;99095.38;;;9.09;100.00
51439;BME280;38816;51.142;-0.974;2023-12-29T04:57:01;99091.13;;;9.14;100.00
51439;BME280;38816;51.142;-0.974;2023-12-29T04:59:26;99083.44;;;9.17;100.00
51439;BME280;38816;51.142;-0.974;2023-12-29T05:01:52;99093.69;;;9.16;100.00
51439;BME280;38816;51.142;-0.974;2023-12-29T05:04:17;99092.00;;;9.19;100.00
51439;BME280;38816;51.142;-0.974;2023-12-29T05:06:43;99095.41;;;9.17;100.00
51439;BME280;38816;51.142;-0.974;2023-12-29T05:09:08;99107.38;;;9.19;100.00
51439;BME280;38816;51.142;-0.974;2023-12-29T05:11:34;99103.97;;;9.22;100.00
51439;BME280;38816;51.142;-0.974;2023-12-29T05:13:59;99092.00;;;9.22;100.00
51439;BME280;38816;51.142;-0.974;2023-12-29T05:16:25;99089.47;;;9.28;100.00
51439;BME280;38816;51.142;-0.974;2023-12-29T05:18:50;99086.00;;;9.22;100.00
51439;BME280;38816;51.142;-0.974;2023-12-29T05:21:19;99103.13;;;9.32;100.00
51439;BME280;38816;51.142;-0.974;2023-12-29T05:23:46;99107.41;;;9.25;100.00
51439;BME280;38816;51.142;-0.974;2023-12-29T05:26:12;99113.38;;;9.24;100.00
51439;BME280;38816;51.142;-0.974;2023-12-29T05:28:38;99116.81;;;9.31;100.00
51439;BME280;38816;51.142;-0.974;2023-12-29T05:31:04;99122.81;;;9.28;100.00
51439;BME280;38816;51.142;-0.974;2023-12-29T05:33:33;99127.06;;;9.31;100.00
51439;BME280;38816;51.142;-0.974;2023-12-29T05:35:59;99124.50;;;9.29;100.00
51439;BME280;38816;51.142;-0.974;2023-12-29T05:38:25;99136.47;;;9.30;100.00
51439;BME280;38816;51.142;-0.974;2023-12-29T05:40:51;99142.50;;;9.40;100.00
51439;BME280;38816;51.142;-0.974;2023-12-29T05:43:17;99136.47;;;9.30;100.00
51439;BME280;38816;51.142;-0.974;2023-12-29T05:45:42;99133.03;;;9.25;100.00
51439;BME280;38816;51.142;-0.974;2023-12-29T05:48:08;99138.09;;;9.13;100.00
51439;BME280;38816;51.142;-0.974;2023-12-29T05:50:33;99148.34;;;9.01;100.00
51439;BME280;38816;51.142;-0.974;2023-12-29T05:52:59;99160.22;;;8.91;100.00
51439;BME280;38816;51.142;-0.974;2023-12-29T05:55:25;99148.31;;;8.98;100.00
51439;BME280;38816;51.142;-0.974;2023-12-29T05:57:50;99155.13;;;8.94;100.00
51439;BME280;38816;51.142;-0.974;2023-12-29T06:00:16;99143.16;;;8.95;100.00
51439;BME280;38816;51.142;-0.974;2023-12-29T06:02:42;99153.38;;;8.88;100.00
51439;BME280;38816;51.142;-0.974;2023-12-29T06:05:10;99154.22;;;8.83;100.00
51439;BME280;38816;51.142;-0.974;2023-12-29T06:07:36;99154.97;;;8.71;100.00
51439;BME280;38816;51.142;-0.974;2023-12-29T06:10:01;99145.53;;;8.62;100.00
51439;BME280;38816;51.142;-0.974;2023-12-29T06:12:27;99142.13;;;8.60;100.00
51439;BME280;38816;51.142;-0.974;2023-12-29T06:14:52;99142.03;;;8.48;100.00
51439;BME280;38816;51.142;-0.974;2023-12-29T06:17:17;99139.41;;;8.38;100.00
51439;BME280;38816;51.142;-0.974;2023-12-29T06:19:43;99145.31;;;8.33;100.00
51439;BME280;38816;51.142;-0.974;2023-12-29T06:22:09;99152.91;;;8.27;100.00
51439;BME280;38816;51.142;-0.974;2023-12-29T06:24:40;99153.81;;;8.29;100.00
51439;BME280;38816;51.142;-0.974;2023-12-29T06:27:08;99158.00;;;8.21;100.00
51439;BME280;38816;51.142;-0.974;2023-12-29T06:29:34;99152.81;;;8.13;100.00
51439;BME280;38816;51.142;-0.974;2023-12-29T06:32:00;99172.34;;;8.05;100.00
51439;BME280;38816;51.142;-0.974;2023-12-29T06:34:25;99169.66;;;7.92;100.00
51439;BME280;38816;51.142;-0.974;2023-12-29T06:36:51;99174.69;;;7.82;100.00
51439;BME280;38816;51.142;-0.974;2023-12-29T06:39:17;99175.53;;;7.83;100.00
51439;BME280;38816;51.142;-0.974;2023-12-29T06:41:43;99184.91;;;7.79;100.00
51439;BME280;38816;51.142;-0.974;2023-12-29T06:44:08;99182.31;;;7.78;100.00
51439;BME280;38816;51.142;-0.974;2023-12-29T06:46:33;99180.66;;;7.81;100.00
51439;BME280;38816;51.142;-0.974;2023-12-29T06:48:59;99178.91;;;7.79;100.00
51439;BME280;38816;51.142;-0.974;2023-12-29T06:51:24;99187.41;;;7.75;100.00
51439;BME280;38816;51.142;-0.974;2023-12-29T06:53:50;99184.72;;;7.64;100.00
51439;BME280;38816;51.142;-0.974;2023-12-29T06:56:16;99190.63;;;7.57;100.00
51439;BME280;38816;51.142;-0.974;2023-12-29T06:58:43;99181.94;;;7.44;100.00
51439;BME280;38816;51.142;-0.974;2023-12-29T07:01:09;99187.75;;;7.31;100.00
51439;BME280;38816;51.142;-0.974;2023-12-29T07:03:34;99187.66;;;7.23;100.00
51439;BME280;38816;51.142;-0.974;2023-12-29T07:06:00;99184.97;;;7.14;100.00
51439;BME280;38816;51.142;-0.974;2023-12-29T07:08:26;99179.00;;;7.14;100.00
51439;BME280;38816;51.142;-0.974;2023-12-29T07:10:52;99172.16;;;7.11;100.00
51439;BME280;38816;51.142;-0.974;2023-12-29T07:13:17;99169.66;;;7.16;100.00
51439;BME280;38816;51.142;-0.974;2023-12-29T07:15:44;99159.28;;;7.03;100.00
51439;BME280;38816;51.142;-0.974;2023-12-29T07:18:10;99161.78;;;6.99;100.00
51439;BME280;38816;51.142;-0.974;2023-12-29T07:20:36;99159.97;;;6.92;100.00
51439;BME280;38816;51.142;-0.974;2023-12-29T07:23:01;99165.88;;;6.86;100.00
51439;BME280;38816;51.142;-0.974;2023-12-29T07:25:27;99159.06;;;6.87;100.00
51439;BME280;38816;51.142;-0.974;2023-12-29T07:27:52;99163.25;;;6.80;100.00
51439;BME280;38816;51.142;-0.974;2023-12-29T07:30:18;99162.34;;;6.78;100.00
51439;BME280;38816;51.142;-0.974;2023-12-29T07:32:44;99170.06;;;6.82;100.00
51439;BME280;38816;51.142;-0.974;2023-12-29T07:35:09;99173.53;;;6.84;100.00
51439;BME280;38816;51.142;-0.974;2023-12-29T07:37:35;99166.66;;;6.83;100.00
51439;BME280;38816;51.142;-0.974;2023-12-29T07:40:00;99165.75;;;6.77;100.00
51439;BME280;38816;51.142;-0.974;2023-12-29T07:42:26;99172.75;;;6.92;100.00
51439;BME280;38816;51.142;-0.974;2023-12-29T07:44:51;99173.66;;;6.97;100.00
51439;BME280;38816;51.142;-0.974;2023-12-29T07:47:17;99170.31;;;7.01;100.00
51439;BME280;38816;51.142;-0.974;2023-12-29T07:49:42;99160.03;;;6.98;100.00
51439;BME280;38816;51.142;-0.974;2023-12-29T07:52:08;99156.56;;;6.93;100.00
51439;BME280;38816;51.142;-0.974;2023-12-29T07:54:34;99162.59;;;6.95;100.00
51439;BME280;38816;51.142;-0.974;2023-12-29T07:56:59;99161.00;;;7.06;100.00
51439;BME280;38816;51.142;-0.974;2023-12-29T07:59:25;99159.25;;;7.02;100.00
51439;BME280;38816;51.142;-0.974;2023-12-29T08:01:51;99161.00;;;7.03;100.00
51439;BME280;38816;51.142;-0.974;2023-12-29T08:04:17;99161.72;;;6.94;100.00
51439;BME280;38816;51.142;-0.974;2023-12-29T08:06:43;99160.88;;;6.95;100.00
51439;BME280;38816;51.142;-0.974;2023-12-29T08:09:08;99164.22;;;6.91;100.00
51439;BME280;38816;51.142;-0.974;2023-12-29T08:11:34;99173.53;;;6.86;100.00
51439;BME280;38816;51.142;-0.974;2023-12-29T08:14:00;99172.69;;;6.87;100.00
51439;BME280;38816;51.142;-0.974;2023-12-29T08:16:26;99167.59;;;6.89;100.00
51439;BME280;38816;51.142;-0.974;2023-12-29T08:18:52;99172.81;;;6.95;100.00
51439;BME280;38816;51.142;-0.974;2023-12-29T08:21:20;99164.31;;;6.97;100.00
51439;BME280;38816;51.142;-0.974;2023-12-29T08:23:47;99162.59;;;6.96;100.00
51439;BME280;38816;51.142;-0.974;2023-12-29T08:26:12;99164.31;;;6.97;100.00
51439;BME280;38816;51.142;-0.974;2023-12-29T08:28:38;99159.97;;;6.93;100.00
51439;BME280;38816;51.142;-0.974;2023-12-29T08:31:04;99174.47;;;6.93;100.00
51439;BME280;38816;51.142;-0.974;2023-12-29T08:33:30;99170.25;;;6.95;100.00
51439;BME280;38816;51.142;-0.974;2023-12-29T08:35:56;99178.75;;;6.94;100.00
51439;BME280;38816;51.142;-0.974;2023-12-29T08:38:26;99177.84;;;6.92;100.00
51439;BME280;38816;51.142;-0.974;2023-12-29T08:40:52;99174.44;;;6.90;100.00
51439;BME280;38816;51.142;-0.974;2023-12-29T08:43:18;99170.19;;;6.92;100.00
51439;BME280;38816;51.142;-0.974;2023-12-29T08:45:47;99181.31;;;6.95;100.00
51439;BME280;38816;51.142;-0.974;2023-12-29T08:48:13;99182.22;;;6.99;100.00
51439;BME280;38816;51.142;-0.974;2023-12-29T08:50:39;99180.53;;;6.99;100.00
51439;BME280;38816;51.142;-0.974;2023-12-29T08:53:04;99187.34;;;7.00;100.00
51439;BME280;38816;51.142;-0.974;2023-12-29T08:55:30;99191.69;;;7.06;100.00
51439;BME280;38816;51.142;-0.974;2023-12-29T08:57:57;99192.59;;;7.11;100.00
51439;BME280;38816;51.142;-0.974;2023-12-29T09:00:23;99207.13;;;7.12;100.00
51439;BME280;38816;51.142;-0.974;2023-12-29T09:02:48;99204.56;;;7.12;100.00
51439;BME280;38816;51.142;-0.974;2023-12-29T09:05:14;99199.47;;;7.15;100.00
51439;BME280;38816;51.142;-0.974;2023-12-29T09:07:40;99206.44;;;7.25;100.00
51439;BME280;38816;51.142;-0.974;2023-12-29T09:10:06;99212.41;;;7.29;100.00
51439;BME280;38816;51.142;-0.974;2023-12-29T09:12:37;99214.25;;;7.38;100.00
51439;BME280;38816;51.142;-0.974;2023-12-29T09:15:04;99213.50;;;7.45;100.00
51439;BME280;38816;51.142;-0.974;2023-12-29T09:17:30;99215.25;;;7.49;100.00
51439;BME280;38816;51.142;-0.974;2023-12-29T09:19:55;99211.09;;;7.57;100.00
51439;BME280;38816;51.142;-0.974;2023-12-29T09:22:21;99217.97;;;7.63;100.00
51439;BME280;38816;51.142;-0.974;2023-12-29T09:24:46;99213.84;;;7.75;100.00
51439;BME280;38816;51.142;-0.974;2023-12-29T09:27:12;99222.50;;;7.86;100.00
51439;BME280;38816;51.142;-0.974;2023-12-29T09:29:38;99214.13;;;8.03;100.00
51439;BME280;38816;51.142;-0.974;2023-12-29T09:32:04;99220.28;;;8.23;100.00
51439;BME280;38816;51.142;-0.974;2023-12-29T09:34:29;99226.34;;;8.31;100.00
51439;BME280;38816;51.142;-0.974;2023-12-29T09:36:55;99214.56;;;8.43;100.00
51439;BME280;38816;51.142;-0.974;2023-12-29T09:39:20;99230.00;;;8.52;100.00
51439;BME280;38816;51.142;-0.974;2023-12-29T09:41:46;99219.78;;;8.59;100.00
51439;BME280;38816;51.142;-0.974;2023-12-29T09:44:16;99229.25;;;8.68;100.00
51439;BME280;38816;51.142;-0.974;2023-12-29T09:46:45;99232.72;;;8.78;100.00
51439;BME280;38816;51.142;-0.974;2023-12-29T09:49:14;99231.13;;;8.87;100.00
51439;BME280;38816;51.142;-0.974;2023-12-29T09:51:42;99225.16;;;8.92;100.00
51439;BME280;38816;51.142;-0.974;2023-12-29T09:54:08;99221.75;;;8.96;100.00
51439;BME280;38816;51.142;-0.974;2023-12-29T09:56:35;99224.38;;;9.02;100.00
51439;BME280;38816;51.142;-0.974;2023-12-29T09:59:03;99220.97;;;9.04;100.00
51439;BME280;38816;51.142;-0.974;2023-12-29T10:01:29;99219.25;;;9.03;100.00
51439;BME280;38816;51.142;-0.974;2023-12-29T10:03:56;99219.25;;;9.03;100.00
51439;BME280;38816;51.142;-0.974;2023-12-29T10:06:25;99215.84;;;9.09;100.00
51439;BME280;38816;51.142;-0.974;2023-12-29T10:08:51;99227.00;;;9.12;100.00
51439;BME280;38816;51.142;-0.974;2023-12-29T10:11:20;99231.25;;;9.13;100.00
51439;BME280;38816;51.142;-0.974;2023-12-29T10:13:50;99227.00;;;9.17;100.00
51439;BME280;38816;51.142;-0.974;2023-12-29T10:16:38;99227.00;;;9.17;100.00
51439;BME280;38816;51.142;-0.974;2023-12-29T10:24:31;99239.09;;;9.33;100.00
51439;BME280;38816;51.142;-0.974;2023-12-29T10:26:57;99234.84;;;9.38;100.00
51439;BME280;38816;51.142;-0.974;2023-12-29T10:29:23;99221.19;;;9.47;100.00
51439;BME280;38816;51.142;-0.974;2023-12-29T10:31:49;99230.63;;;9.53;100.00
51439;BME280;38816;51.142;-0.974;2023-12-29T10:34:19;99221.22;;;9.58;100.00
51439;BME280;38816;51.142;-0.974;2023-12-29T10:36:49;99212.66;;;9.59;100.00
51439;BME280;38816;51.142;-0.974;2023-12-29T10:39:15;99210.97;;;9.50;100.00
51439;BME280;38816;51.142;-0.974;2023-12-29T10:41:41;99214.38;;;9.55;100.00
51439;BME280;38816;51.142;-0.974;2023-12-29T10:44:07;99215.19;;;9.50;100.00
51439;BME280;38816;51.142;-0.974;2023-12-29T10:46:33;99199.84;;;9.51;100.00
51439;BME280;38816;51.142;-0.974;2023-12-29T10:49:12;99205.88;;;9.66;100.00
51439;BME280;38816;51.142;-0.974;2023-12-29T10:51:39;99209.34;;;9.83;100.00
51439;BME280;38816;51.142;-0.974;2023-12-29T10:54:05;99206.78;;;9.94;100.00
51439;BME280;38816;51.142;-0.974;2023-12-29T10:56:32;99201.69;;;10.00;100.00
51439;BME280;38816;51.142;-0.974;2023-12-29T10:59:05;99192.25;;;9.99;100.00
51439;BME280;38816;51.142;-0.974;2023-12-29T11:01:34;99196.56;;;10.06;100.00
51439;BME280;38816;51.142;-0.974;2023-12-29T11:04:04;99171.72;;;9.99;100.00
51439;BME280;38816;51.142;-0.974;2023-12-29T11:06:44;99166.59;;;9.91;100.00
51439;BME280;38816;51.142;-0.974;2023-12-29T11:09:12;99165.72;;;9.78;100.00
51439;BME280;38816;51.142;-0.974;2023-12-29T11:11:38;99166.50;;;9.57;100.00
51439;BME280;38816;51.142;-0.974;2023-12-29T11:14:04;99175.00;;;9.41;100.00
51439;BME280;38816;51.142;-0.974;2023-12-29T11:16:30;99177.53;;;9.36;100.00
51439;BME280;38816;51.142;-0.974;2023-12-29T11:18:58;99175.81;;;9.29;100.00
51439;BME280;38816;51.142;-0.974;2023-12-29T11:21:26;99164.66;;;9.27;100.00
51439;BME280;38816;51.142;-0.974;2023-12-29T11:23:55;99167.25;;;9.32;100.00
51439;BME280;38816;51.142;-0.974;2023-12-29T11:26:21;99163.88;;;9.37;100.00
51439;BME280;38816;51.142;-0.974;2023-12-29T11:28:47;99161.28;;;9.33;100.00
51439;BME280;38816;51.142;-0.974;2023-12-29T11:31:16;99165.47;;;9.16;100.00
51439;BME280;38816;51.142;-0.974;2023-12-29T11:33:49;99170.50;;;8.93;100.00
51439;BME280;38816;51.142;-0.974;2023-12-29T11:36:23;99180.69;;;8.85;100.00
51439;BME280;38816;51.142;-0.974;2023-12-29T11:38:58;99170.38;;;8.74;100.00
51439;BME280;38816;51.142;-0.974;2023-12-29T11:44:26;99178.09;;;8.79;100.00
51439;BME280;38816;51.142;-0.974;2023-12-29T11:46:56;99177.25;;;8.78;100.00
51439;BME280;38816;51.142;-0.974;2023-12-29T11:49:22;99184.97;;;8.83;100.00
51439;BME280;38816;51.142;-0.974;2023-12-29T11:51:47;99183.31;;;9.00;100.00
51439;BME280;38816;51.142;-0.974;2023-12-29T11:54:26;99195.34;;;9.09;100.00
51439;BME280;38816;51.142;-0.974;2023-12-29T11:56:53;99190.25;;;9.12;100.00
51439;BME280;38816;51.142;-0.974;2023-12-29T12:01:58;99199.75;;;9.28;100.00
51439;BME280;38816;51.142;-0.974;2023-12-29T12:04:42;99193.75;;;9.31;100.00
51439;BME280;38816;51.142;-0.974;2023-12-29T12:09:47;99196.41;;;9.52;100.00
51439;BME280;38816;51.142;-0.974;2023-12-29T12:12:39;99197.38;;;9.77;100.00
51439;BME280;38816;51.142;-0.974;2023-12-29T12:18:05;99188.84;;;9.97;100.00
51439;BME280;38816;51.142;-0.974;2023-12-29T12:20:33;99176.03;;;10.06;100.00
51439;BME280;38816;51.142;-0.974;2023-12-29T12:25:28;99194.00;;;10.21;100.00
51439;BME280;38816;51.142;-0.974;2023-12-29T12:27:53;99186.28;;;10.21;100.00
51439;BME280;38816;51.142;-0.974;2023-12-29T12:30:19;99193.16;;;10.10;100.00
51439;BME280;38816;51.142;-0.974;2023-12-29T12:32:45;99189.72;;;10.05;100.00
51439;BME280;38816;51.142;-0.974;2023-12-29T12:35:14;99197.41;;;9.91;100.00
51439;BME280;38816;51.142;-0.974;2023-12-29T12:37:43;99182.84;;;9.92;100.00
51439;BME280;38816;51.142;-0.974;2023-12-29T12:40:09;99184.56;;;9.86;100.00
51439;BME280;38816;51.142;-0.974;2023-12-29T12:42:38;99182.00;;;9.97;100.00
51439;BME280;38816;51.142;-0.974;2023-12-29T12:45:17;99176.03;;;10.09;100.00
51439;BME280;38816;51.142;-0.974;2023-12-29T12:47:50;99169.19;;;10.05;100.00
51439;BME280;38816;51.142;-0.974;2023-12-29T12:50:16;99164.03;;;10.05;100.00
51439;BME280;38816;51.142;-0.974;2023-12-29T12:52:42;99158.03;;;10.06;100.00
51439;BME280;38816;51.142;-0.974;2023-12-29T12:55:08;99158.91;;;9.96;100.00
51439;BME280;38816;51.142;-0.974;2023-12-29T12:57:36;99156.28;;;9.80;100.00
51439;BME280;38816;51.142;-0.974;2023-12-29T13:00:03;99162.25;;;9.70;100.00
51439;BME280;38816;51.142;-0.974;2023-12-29T13:02:30;99160.50;;;9.63;100.00
51439;BME280;38816;51.142;-0.974;2023-12-29T13:04:57;99157.09;;;9.55;100.00
51439;BME280;38816;51.142;-0.974;2023-12-29T13:07:23;99181.06;;;9.60;100.00